createdAt,value
2019-05-25T00:00:06.368Z,2.90
2019-05-25T00:01:13.535Z,2.60
2019-05-25T00:02:20.898Z,2.70
2019-05-25T00:03:27.536Z,2.42
2019-05-25T00:04:32.933Z,2.85
2019-05-25T00:05:40.184Z,3.17
2019-05-25T00:06:48.320Z,3.37
2019-05-25T00:07:53.481Z,2.80
2019-05-25T00:08:59.054Z,2.60
2019-05-25T00:10:04.543Z,3.27
2019-05-25T00:11:09.924Z,3.60
2019-05-25T00:12:14.702Z,2.65
2019-05-25T00:13:21.317Z,2.70
2019-05-25T00:14:26.199Z,2.62
2019-05-25T00:15:31.672Z,3.08
2019-05-25T00:16:44.271Z,3.12
2019-05-25T00:17:51.728Z,3.22
2019-05-25T00:18:56.452Z,2.55
2019-05-25T00:20:04.872Z,2.80
2019-05-25T00:21:13.199Z,2.92
2019-05-25T00:22:16.881Z,3.42
2019-05-25T00:23:21.659Z,3.75
2019-05-25T00:27:04.923Z,3.05
2019-05-25T00:28:24.166Z,2.50
2019-05-25T00:29:29.729Z,2.65
2019-05-25T00:30:34.698Z,2.90
2019-05-25T00:31:41.174Z,3.27
2019-05-25T00:32:46.226Z,3.35
2019-05-25T00:33:51.606Z,3.00
2019-05-25T00:34:59.636Z,2.00
2019-05-25T00:36:05.156Z,3.00
2019-05-25T00:37:09.971Z,2.70
2019-05-25T00:38:15.827Z,2.65
2019-05-25T00:39:22.658Z,2.50
2019-05-25T00:40:28.013Z,2.80
2019-05-25T00:41:32.746Z,2.80
2019-05-25T00:42:38.104Z,2.67
2019-05-25T00:43:42.902Z,3.10
2019-05-25T00:44:48.624Z,2.67
2019-05-25T00:45:53.429Z,2.60
2019-05-25T00:47:01.525Z,3.17
2019-05-25T00:48:06.392Z,2.92
2019-05-25T00:49:12.201Z,2.65
2019-05-25T00:50:17.327Z,2.95
2019-05-25T00:51:22.767Z,2.20
2019-05-25T00:52:27.607Z,3.10
2019-05-25T00:53:32.911Z,2.65
2019-05-25T00:54:37.705Z,2.83
2019-05-25T00:55:43.071Z,2.35
2019-05-25T00:56:48.235Z,2.50
2019-05-25T00:57:54.193Z,1.95
2019-05-25T00:59:01.676Z,2.77
2019-05-25T01:00:08.075Z,2.30
2019-05-25T01:01:15.514Z,3.00
2019-05-25T01:02:20.841Z,2.50
2019-05-25T01:03:25.884Z,2.67
2019-05-25T01:04:31.265Z,2.70
2019-05-25T01:05:36.039Z,3.70
2019-05-25T01:06:41.409Z,2.65
2019-05-25T01:07:46.981Z,2.85
2019-05-25T01:08:52.486Z,3.08
2019-05-25T01:09:57.478Z,3.33
2019-05-25T01:11:02.893Z,2.83
2019-05-25T01:12:07.708Z,3.25
2019-05-25T01:13:13.177Z,2.70
2019-05-25T01:14:18.477Z,2.77
2019-05-25T01:15:24.961Z,3.92
2019-05-25T01:16:30.301Z,3.80
2019-05-25T01:17:36.043Z,2.90
2019-05-25T01:18:44.023Z,3.00
2019-05-25T01:19:50.169Z,2.87
2019-05-25T01:20:55.457Z,3.87
2019-05-25T01:22:00.813Z,3.10
2019-05-25T01:23:05.729Z,3.50
2019-05-25T01:24:11.145Z,2.83
2019-05-25T01:25:22.309Z,3.50
2019-05-25T01:26:27.765Z,3.70
2019-05-25T01:27:32.492Z,2.85
2019-05-25T01:28:40.609Z,4.70
2019-05-25T01:29:45.644Z,2.95
2019-05-25T01:30:51.198Z,4.35
2019-05-25T01:31:56.418Z,2.80
2019-05-25T01:33:04.912Z,3.95
2019-05-25T01:34:10.101Z,2.62
2019-05-25T01:35:19.120Z,3.80
2019-05-25T01:36:24.127Z,3.30
2019-05-25T01:37:29.919Z,2.77
2019-05-25T01:38:34.751Z,4.87
2019-05-25T01:39:40.100Z,2.83
2019-05-25T01:40:45.242Z,2.80
2019-05-25T01:41:50.592Z,3.52
2019-05-25T01:42:55.350Z,2.77
2019-05-25T01:44:01.335Z,2.70
2019-05-25T01:45:07.193Z,3.33
2019-05-25T01:46:12.990Z,3.30
2019-05-25T01:47:17.919Z,3.60
2019-05-25T01:48:24.005Z,2.85
2019-05-25T01:49:29.549Z,3.08
2019-05-25T01:50:36.137Z,3.85
2019-05-25T01:51:40.904Z,2.70
2019-05-25T01:52:46.219Z,3.95
2019-05-25T01:53:51.134Z,3.08
2019-05-25T01:54:59.961Z,3.08
2019-05-25T01:56:03.001Z,2.77
2019-05-25T01:57:08.315Z,3.10
2019-05-25T01:58:13.059Z,2.60
2019-05-25T01:59:18.448Z,3.47
2019-05-25T02:00:23.277Z,3.10
2019-05-25T02:01:28.669Z,3.90
2019-05-25T02:02:33.555Z,3.67
2019-05-25T02:03:39.258Z,3.33
2019-05-25T02:04:44.078Z,2.80
2019-05-25T02:05:49.473Z,2.72
2019-05-25T02:06:54.209Z,3.50
2019-05-25T02:07:59.638Z,4.10
2019-05-25T02:09:06.042Z,4.20
2019-05-25T02:10:12.268Z,3.00
2019-05-25T02:11:17.057Z,3.05
2019-05-25T02:12:22.429Z,2.80
2019-05-25T02:13:27.552Z,2.85
2019-05-25T02:14:33.067Z,3.47
2019-05-25T02:15:37.878Z,3.22
2019-05-25T02:16:44.085Z,3.50
2019-05-25T02:17:48.932Z,4.25
2019-05-25T02:18:54.744Z,3.20
2019-05-25T02:19:59.560Z,3.50
2019-05-25T02:21:05.127Z,3.10
2019-05-25T02:22:10.026Z,3.60
2019-05-25T02:23:15.799Z,3.37
2019-05-25T02:24:20.738Z,2.80
2019-05-25T02:25:30.231Z,3.30
2019-05-25T02:26:42.360Z,3.45
2019-05-25T02:27:47.717Z,3.92
2019-05-25T02:28:53.079Z,3.60
2019-05-25T02:29:59.185Z,3.33
2019-05-25T02:31:03.993Z,3.77
2019-05-25T02:32:09.674Z,3.25
2019-05-25T02:33:14.864Z,3.40
2019-05-25T02:34:20.540Z,3.90
2019-05-25T02:35:28.056Z,3.42
2019-05-25T02:36:33.341Z,2.98
2019-05-25T02:37:38.545Z,3.22
2019-05-25T02:38:44.953Z,2.95
2019-05-25T02:39:49.728Z,3.40
2019-05-25T02:40:55.910Z,3.37
2019-05-25T02:42:00.666Z,3.40
2019-05-25T02:43:06.405Z,3.60
2019-05-25T02:44:11.188Z,2.98
2019-05-25T02:45:16.613Z,2.90
2019-05-25T02:46:23.918Z,3.40
2019-05-25T02:47:29.671Z,3.80
2019-05-25T02:48:34.491Z,3.77
2019-05-25T02:49:40.664Z,4.40
2019-05-25T02:50:45.497Z,3.30
2019-05-25T02:51:50.832Z,3.55
2019-05-25T02:52:55.589Z,2.95
2019-05-25T02:54:01.437Z,3.22
2019-05-25T02:55:07.677Z,3.05
2019-05-25T02:56:13.018Z,4.65
2019-05-25T02:57:17.722Z,3.62
2019-05-25T02:58:23.045Z,3.30
2019-05-25T02:59:27.840Z,3.27
2019-05-25T03:00:35.075Z,2.95
2019-05-25T03:01:39.912Z,3.10
2019-05-25T03:02:45.488Z,3.20
2019-05-25T03:03:50.317Z,3.12
2019-05-25T03:04:57.433Z,3.30
2019-05-25T03:06:03.472Z,3.40
2019-05-25T03:07:09.380Z,2.98
2019-05-25T03:08:14.148Z,3.35
2019-05-25T03:09:21.066Z,3.30
2019-05-25T03:10:28.922Z,3.90
2019-05-25T03:11:34.611Z,3.33
2019-05-25T03:12:39.680Z,4.30
2019-05-25T03:13:45.398Z,4.25
2019-05-25T03:14:50.284Z,3.70
2019-05-25T03:15:55.680Z,4.15
2019-05-25T03:17:00.448Z,3.40
2019-05-25T03:18:05.783Z,3.12
2019-05-25T03:19:10.509Z,4.28
2019-05-25T03:20:16.053Z,4.03
2019-05-25T03:21:20.792Z,4.17
2019-05-25T03:22:26.107Z,3.60
2019-05-25T03:23:31.146Z,4.28
2019-05-25T03:24:36.574Z,3.47
2019-05-25T03:25:49.684Z,3.98
2019-05-25T03:26:48.407Z,4.25
2019-05-25T03:27:53.147Z,4.08
2019-05-25T03:28:58.641Z,3.65
2019-05-25T03:30:04.323Z,3.92
2019-05-25T03:31:09.732Z,4.03
2019-05-25T03:32:14.556Z,3.75
2019-05-25T03:33:19.876Z,3.98
2019-05-25T03:34:24.606Z,4.45
2019-05-25T03:35:29.939Z,4.08
2019-05-25T03:36:35.341Z,4.12
2019-05-25T03:37:40.633Z,4.15
2019-05-25T03:38:45.446Z,3.75
2019-05-25T03:39:50.769Z,3.95
2019-05-25T03:40:55.577Z,4.08
2019-05-25T03:42:00.893Z,4.47
2019-05-25T03:43:06.383Z,4.35
2019-05-25T03:46:26.990Z,5.17
2019-05-25T03:47:32.224Z,4.45
2019-05-25T03:48:36.818Z,4.97
2019-05-25T03:49:42.018Z,4.47
2019-05-25T03:50:46.623Z,4.60
2019-05-25T03:51:51.903Z,4.85
2019-05-25T03:52:56.541Z,4.30
2019-05-25T03:54:01.704Z,4.97
2019-05-25T03:55:06.922Z,5.33
2019-05-25T03:56:12.206Z,5.00
2019-05-25T03:57:16.863Z,5.00
2019-05-25T03:58:22.190Z,4.58
2019-05-25T03:59:26.873Z,4.90
2019-05-25T04:00:37.673Z,5.50
2019-05-25T04:01:42.284Z,4.83
2019-05-25T04:02:47.625Z,5.15
2019-05-25T04:03:52.245Z,4.67
2019-05-25T04:04:57.675Z,6.25
2019-05-25T04:06:02.595Z,4.80
2019-05-25T04:07:07.841Z,5.90
2019-05-25T04:08:12.477Z,5.87
2019-05-25T04:09:17.664Z,5.60
2019-05-25T04:10:22.329Z,5.15
2019-05-25T04:11:30.480Z,4.67
2019-05-25T04:12:35.599Z,5.33
2019-05-25T04:13:40.842Z,5.12
2019-05-25T04:14:45.436Z,5.42
2019-05-25T04:15:50.667Z,5.83
2019-05-25T04:16:55.838Z,5.25
2019-05-25T04:18:01.053Z,4.95
2019-05-25T04:19:06.147Z,5.50
2019-05-25T04:20:11.527Z,5.35
2019-05-25T04:21:16.405Z,5.20
2019-05-25T04:22:21.752Z,6.58
2019-05-25T04:23:26.533Z,5.80
2019-05-25T04:24:32.022Z,6.15
2019-05-25T04:25:37.286Z,5.90
2019-05-25T04:26:42.512Z,6.00
2019-05-25T04:27:47.408Z,6.58
2019-05-25T04:28:58.244Z,7.67
2019-05-25T04:30:03.459Z,5.75
2019-05-25T04:31:09.319Z,6.10
2019-05-25T04:32:17.026Z,5.87
2019-05-25T04:33:26.446Z,6.60
2019-05-25T04:34:31.452Z,6.65
2019-05-25T04:35:36.683Z,6.85
2019-05-25T04:36:41.295Z,6.87
2019-05-25T04:37:46.986Z,6.60
2019-05-25T04:38:51.728Z,6.83
2019-05-25T04:39:57.175Z,8.35
2019-05-25T04:41:02.087Z,5.95
2019-05-25T04:42:07.582Z,7.33
2019-05-25T04:43:12.215Z,8.33
2019-05-25T04:44:17.784Z,6.97
2019-05-25T04:45:22.748Z,6.03
2019-05-25T04:46:28.204Z,6.62
2019-05-25T04:47:33.031Z,7.75
2019-05-25T04:48:38.423Z,6.58
2019-05-25T04:49:44.960Z,7.00
2019-05-25T04:50:50.331Z,6.35
2019-05-25T04:51:55.472Z,5.83
2019-05-25T04:53:00.731Z,7.65
2019-05-25T04:54:05.771Z,7.05
2019-05-25T04:55:11.419Z,6.45
2019-05-25T04:56:16.412Z,6.97
2019-05-25T04:57:21.711Z,7.50
2019-05-25T04:58:26.784Z,6.47
2019-05-25T04:59:31.985Z,5.78
2019-05-25T05:00:38.695Z,5.50
2019-05-25T05:01:43.960Z,6.33
2019-05-25T05:02:48.665Z,6.12
2019-05-25T05:03:53.859Z,6.03
2019-05-25T05:04:58.526Z,6.05
2019-05-25T05:06:03.760Z,6.90
2019-05-25T05:07:08.450Z,6.30
2019-05-25T05:08:13.929Z,6.47
2019-05-25T05:09:18.564Z,6.72
2019-05-25T05:10:23.780Z,6.83
2019-05-25T05:11:28.588Z,6.53
2019-05-25T05:12:33.975Z,7.58
2019-05-25T05:13:38.743Z,7.00
2019-05-25T05:14:43.976Z,7.25
2019-05-25T05:15:48.660Z,6.67
2019-05-25T05:16:53.906Z,7.10
2019-05-25T05:17:58.594Z,6.78
2019-05-25T05:19:06.280Z,6.87
2019-05-25T05:20:11.231Z,7.12
2019-05-25T05:21:17.683Z,8.88
2019-05-25T05:22:23.400Z,7.00
2019-05-25T05:23:32.700Z,7.30
2019-05-25T05:24:37.668Z,7.30
2019-05-25T05:25:43.362Z,6.85
2019-05-25T05:26:55.834Z,7.30
2019-05-25T05:27:55.003Z,8.43
2019-05-25T05:28:59.807Z,8.00
2019-05-25T05:30:05.625Z,7.70
2019-05-25T05:31:22.785Z,7.20
2019-05-25T05:32:27.035Z,7.25
2019-05-25T05:33:24.327Z,7.33
2019-05-25T05:34:29.761Z,8.33
2019-05-25T05:35:38.721Z,8.28
2019-05-25T05:36:42.502Z,7.85
2019-05-25T05:37:47.567Z,9.00
2019-05-25T05:38:53.653Z,8.28
2019-05-25T05:40:07.470Z,7.25
2019-05-25T05:41:14.007Z,8.05
2019-05-25T05:42:22.016Z,8.98
2019-05-25T05:43:30.174Z,7.85
2019-05-25T05:44:37.338Z,8.40
2019-05-25T05:45:44.361Z,7.90
2019-05-25T05:46:50.471Z,8.85
2019-05-25T05:47:59.036Z,8.23
2019-05-25T05:49:04.186Z,8.43
2019-05-25T05:50:12.203Z,8.70
2019-05-25T05:51:21.550Z,9.38
2019-05-25T05:52:30.900Z,9.03
2019-05-25T05:53:38.106Z,9.60
2019-05-25T05:54:51.167Z,8.55
2019-05-25T05:55:58.843Z,8.78
2019-05-25T05:57:12.163Z,9.50
2019-05-25T05:58:10.397Z,9.33
2019-05-25T05:59:15.690Z,9.60
2019-05-25T06:00:22.760Z,9.25
2019-05-25T06:01:28.976Z,9.10
2019-05-25T06:02:33.657Z,10.63
2019-05-25T06:03:39.115Z,9.45
2019-05-25T06:04:47.095Z,9.58
2019-05-25T06:05:52.570Z,8.53
2019-05-25T06:06:59.058Z,12.75
2019-05-25T06:08:04.228Z,12.15
2019-05-25T06:09:09.324Z,11.43
2019-05-25T06:10:14.673Z,9.63
2019-05-25T06:11:19.755Z,10.32
2019-05-25T06:12:25.019Z,8.90
2019-05-25T06:13:32.483Z,8.25
2019-05-25T06:14:38.456Z,8.73
2019-05-25T06:15:43.287Z,8.95
2019-05-25T06:16:49.864Z,10.45
2019-05-25T06:17:54.518Z,8.90
2019-05-25T06:18:59.728Z,8.23
2019-05-25T06:20:04.963Z,8.40
2019-05-25T06:21:10.256Z,8.65
2019-05-25T06:22:14.920Z,7.97
2019-05-25T06:23:20.724Z,8.48
2019-05-25T06:24:26.662Z,8.95
2019-05-25T06:25:37.318Z,7.87
2019-05-25T06:26:41.905Z,7.50
2019-05-25T06:27:47.103Z,8.00
2019-05-25T06:28:52.087Z,8.93
2019-05-25T06:30:00.995Z,8.65
2019-05-25T06:31:05.873Z,8.60
2019-05-25T06:32:13.854Z,8.70
2019-05-25T06:33:18.455Z,7.33
2019-05-25T06:34:23.708Z,8.25
2019-05-25T06:35:29.546Z,7.45
2019-05-25T06:36:35.281Z,8.10
2019-05-25T06:37:40.170Z,7.40
2019-05-25T06:38:45.521Z,8.48
2019-05-25T06:39:50.239Z,7.12
2019-05-25T06:40:55.983Z,7.90
2019-05-25T06:42:03.987Z,7.60
2019-05-25T06:43:09.226Z,8.60
2019-05-25T06:44:13.883Z,8.78
2019-05-25T06:45:19.685Z,9.38
2019-05-25T06:46:24.331Z,9.10
2019-05-25T06:47:32.437Z,8.03
2019-05-25T06:48:37.686Z,7.47
2019-05-25T06:49:43.091Z,7.50
2019-05-25T06:50:47.980Z,5.97
2019-05-25T06:51:53.361Z,7.70
2019-05-25T06:52:58.308Z,8.48
2019-05-25T06:54:03.764Z,8.30
2019-05-25T06:56:24.330Z,8.13
2019-05-25T06:57:42.480Z,8.25
2019-05-25T06:58:39.251Z,8.33
2019-05-25T06:59:44.469Z,8.68
2019-05-25T07:00:49.161Z,8.75
2019-05-25T07:01:54.844Z,7.90
2019-05-25T07:03:00.767Z,8.10
2019-05-25T07:04:10.411Z,8.08
2019-05-25T07:05:12.583Z,7.92
2019-05-25T07:06:21.155Z,7.90
2019-05-25T07:07:27.523Z,8.00
2019-05-25T07:08:38.572Z,7.80
2019-05-25T07:09:43.425Z,7.30
2019-05-25T07:10:48.634Z,8.58
2019-05-25T07:11:53.284Z,8.60
2019-05-25T07:13:00.571Z,8.50
2019-05-25T07:14:05.337Z,8.75
2019-05-25T07:15:13.967Z,10.10
2019-05-25T07:16:19.091Z,8.20
2019-05-25T07:17:26.426Z,8.90
2019-05-25T07:18:31.135Z,8.28
2019-05-25T07:19:36.727Z,8.80
2019-05-25T07:20:41.439Z,10.95
2019-05-25T07:21:46.988Z,12.58
2019-05-25T07:22:51.829Z,12.37
2019-05-25T07:24:01.737Z,12.15
2019-05-25T07:25:08.846Z,12.13
2019-05-25T07:26:14.367Z,6.85
2019-05-25T07:27:19.125Z,12.53
2019-05-25T07:28:24.344Z,11.75
2019-05-25T07:29:32.146Z,11.88
2019-05-25T07:30:37.367Z,11.05
2019-05-25T07:31:42.094Z,8.95
2019-05-25T07:32:55.187Z,11.83
2019-05-25T07:33:59.807Z,13.40
2019-05-25T07:35:06.549Z,13.65
2019-05-25T07:36:12.208Z,14.45
2019-05-25T07:37:17.499Z,15.25
2019-05-25T07:38:22.585Z,14.47
2019-05-25T07:39:30.592Z,15.40
2019-05-25T07:40:37.196Z,15.30
2019-05-25T07:41:42.720Z,10.85
2019-05-25T07:42:47.688Z,15.15
2019-05-25T07:43:53.067Z,13.80
2019-05-25T07:44:58.103Z,14.63
2019-05-25T07:46:03.638Z,15.43
2019-05-25T07:47:08.284Z,16.80
2019-05-25T07:48:14.087Z,18.50
2019-05-25T07:49:18.735Z,17.50
2019-05-25T07:50:24.634Z,18.15
2019-05-25T07:51:29.295Z,18.37
2019-05-25T07:52:34.511Z,18.27
2019-05-25T07:53:39.157Z,19.25
2019-05-25T07:54:44.383Z,19.85
2019-05-25T07:55:49.084Z,19.55
2019-05-25T07:56:54.931Z,19.82
2019-05-25T07:58:15.817Z,19.45
2019-05-25T07:59:08.665Z,15.18
2019-05-25T08:00:13.927Z,21.42
2019-05-25T08:01:20.183Z,19.87
2019-05-25T08:02:25.159Z,23.18
2019-05-25T08:03:30.927Z,21.52
2019-05-25T08:04:37.188Z,21.55
2019-05-25T08:05:45.924Z,21.33
2019-05-25T08:06:50.571Z,21.35
2019-05-25T08:07:55.782Z,19.75
2019-05-25T08:09:03.322Z,21.50
2019-05-25T08:10:09.107Z,21.15
2019-05-25T08:11:16.884Z,21.87
2019-05-25T08:12:22.354Z,21.25
2019-05-25T08:13:27.189Z,20.25
2019-05-25T08:14:32.598Z,20.35
2019-05-25T08:15:38.816Z,18.75
2019-05-25T08:16:44.100Z,18.55
2019-05-25T08:17:51.433Z,19.02
2019-05-25T08:19:00.014Z,17.32
2019-05-25T08:20:05.690Z,14.93
2019-05-25T08:21:11.815Z,16.50
2019-05-25T08:22:16.496Z,14.47
2019-05-25T08:23:24.830Z,17.50
2019-05-25T08:24:30.762Z,14.23
2019-05-25T08:25:36.939Z,15.32
2019-05-25T08:26:47.204Z,14.83
2019-05-25T08:27:52.842Z,14.25
2019-05-25T08:29:01.329Z,14.47
2019-05-25T08:30:10.340Z,12.55
2019-05-25T08:31:18.819Z,13.22
2019-05-25T08:32:24.131Z,12.20
2019-05-25T08:33:29.508Z,11.78
2019-05-25T08:34:37.951Z,11.93
2019-05-25T08:35:46.359Z,10.95
2019-05-25T08:36:52.750Z,11.48
2019-05-25T08:38:00.517Z,11.78
2019-05-25T08:39:08.519Z,9.95
2019-05-25T08:40:14.191Z,10.68
2019-05-25T08:41:20.084Z,10.48
2019-05-25T08:42:28.127Z,9.33
2019-05-25T08:43:39.895Z,9.85
2019-05-25T08:44:44.578Z,10.85
2019-05-25T08:45:50.330Z,9.08
2019-05-25T08:46:55.589Z,9.48
2019-05-25T08:48:03.469Z,9.15
2019-05-25T08:49:08.299Z,9.10
2019-05-25T08:50:19.650Z,9.68
2019-05-25T08:51:28.302Z,13.20
2019-05-25T08:52:36.818Z,9.90
2019-05-25T08:53:46.580Z,9.75
2019-05-25T08:54:50.764Z,8.23
2019-05-25T08:55:55.679Z,8.48
2019-05-25T08:57:01.092Z,7.08
2019-05-25T08:58:06.424Z,8.85
2019-05-25T08:59:11.616Z,7.92
2019-05-25T09:00:16.318Z,6.75
2019-05-25T09:01:30.742Z,8.38
2019-05-25T09:02:36.975Z,8.08
2019-05-25T09:03:42.598Z,7.62
2019-05-25T09:04:47.827Z,8.93
2019-05-25T09:05:53.048Z,8.10
2019-05-25T09:07:00.015Z,8.70
2019-05-25T09:08:05.634Z,8.50
2019-05-25T09:09:10.780Z,8.03
2019-05-25T09:10:17.994Z,8.65
2019-05-25T09:11:27.146Z,8.43
2019-05-25T09:12:32.720Z,7.95
2019-05-25T09:13:37.381Z,7.65
2019-05-25T09:14:42.607Z,7.12
2019-05-25T09:15:47.272Z,7.97
2019-05-25T09:16:53.642Z,7.28
2019-05-25T09:17:59.908Z,7.53
2019-05-25T09:19:07.863Z,7.45
2019-05-25T09:20:12.870Z,8.60
2019-05-25T09:21:31.512Z,8.00
2019-05-25T09:22:37.666Z,7.90
2019-05-25T09:23:48.851Z,8.25
2019-05-25T09:24:56.208Z,8.25
2019-05-25T09:26:01.495Z,8.20
2019-05-25T09:27:06.241Z,8.68
2019-05-25T09:28:11.486Z,9.23
2019-05-25T09:29:16.667Z,7.72
2019-05-25T09:30:23.495Z,8.30
2019-05-25T09:31:29.175Z,8.60
2019-05-25T09:32:34.684Z,7.80
2019-05-25T09:33:39.987Z,8.75
2019-05-25T09:34:47.032Z,8.58
2019-05-25T09:35:52.114Z,11.08
2019-05-25T09:36:58.099Z,9.00
2019-05-25T09:38:05.138Z,8.35
2019-05-25T09:39:12.421Z,9.10
2019-05-25T09:40:17.365Z,10.18
2019-05-25T09:41:22.563Z,9.25
2019-05-25T09:42:27.203Z,8.48
2019-05-25T09:43:36.905Z,8.00
2019-05-25T09:44:41.564Z,8.78
2019-05-25T09:45:46.745Z,9.68
2019-05-25T09:46:51.378Z,7.92
2019-05-25T09:47:56.707Z,7.65
2019-05-25T09:49:01.426Z,9.05
2019-05-25T09:50:07.059Z,7.92
2019-05-25T09:51:15.763Z,8.80
2019-05-25T09:52:23.811Z,9.15
2019-05-25T09:53:30.299Z,7.37
2019-05-25T09:54:35.515Z,12.18
2019-05-25T09:55:40.579Z,9.05
2019-05-25T09:56:46.807Z,10.28
2019-05-25T09:57:51.680Z,10.20
2019-05-25T09:58:57.215Z,10.63
2019-05-25T10:00:06.971Z,9.35
2019-05-25T10:01:12.191Z,9.35
2019-05-25T10:02:16.905Z,9.60
2019-05-25T10:03:23.175Z,10.08
2019-05-25T10:04:32.030Z,11.08
2019-05-25T10:05:37.594Z,11.03
2019-05-25T10:06:42.298Z,10.40
2019-05-25T10:07:47.931Z,9.88
2019-05-25T10:08:52.893Z,10.18
2019-05-25T10:10:01.299Z,8.98
2019-05-25T10:11:12.783Z,12.23
2019-05-25T10:12:24.252Z,12.65
2019-05-25T10:13:37.157Z,13.30
2019-05-25T10:14:42.977Z,12.43
2019-05-25T10:15:48.179Z,13.38
2019-05-25T10:16:53.760Z,9.60
2019-05-25T10:18:00.484Z,14.33
2019-05-25T10:19:12.680Z,15.43
2019-05-25T10:20:21.049Z,10.30
2019-05-25T10:21:29.201Z,14.85
2019-05-25T10:22:38.501Z,14.73
2019-05-25T10:23:45.958Z,15.48
2019-05-25T10:24:50.620Z,15.50
2019-05-25T10:25:55.840Z,14.87
2019-05-25T10:27:01.434Z,17.02
2019-05-25T10:28:15.640Z,8.70
2019-05-25T10:29:36.060Z,16.55
2019-05-25T10:30:32.970Z,17.42
2019-05-25T10:31:44.990Z,16.27
2019-05-25T10:32:55.095Z,16.40
2019-05-25T10:34:06.936Z,14.43
2019-05-25T10:35:13.344Z,8.93
2019-05-25T10:36:19.844Z,7.15
2019-05-25T10:37:25.179Z,16.77
2019-05-25T10:38:30.440Z,20.30
2019-05-25T10:39:46.503Z,18.10
2019-05-25T10:40:58.411Z,17.73
2019-05-25T10:42:02.970Z,16.20
2019-05-25T10:43:08.400Z,13.55
2019-05-25T10:44:13.991Z,17.70
2019-05-25T10:45:20.570Z,18.10
2019-05-25T10:46:26.135Z,19.92
2019-05-25T10:47:33.647Z,17.15
2019-05-25T10:48:42.339Z,17.35
2019-05-25T10:49:51.955Z,16.77
2019-05-25T10:50:57.572Z,17.73
2019-05-25T10:52:02.385Z,17.05
2019-05-25T10:53:09.440Z,17.02
2019-05-25T10:54:14.128Z,17.85
2019-05-25T10:55:19.703Z,17.95
2019-05-25T10:56:29.965Z,19.62
2019-05-25T10:57:36.681Z,20.27
2019-05-25T10:58:41.648Z,16.55
2019-05-25T10:59:53.305Z,15.93
2019-05-25T11:00:57.287Z,16.40
2019-05-25T11:02:11.467Z,15.72
2019-05-25T11:03:19.094Z,16.15
2019-05-25T11:04:25.202Z,15.13
2019-05-25T11:05:31.043Z,12.80
2019-05-25T11:06:36.915Z,18.10
2019-05-25T11:07:43.101Z,13.40
2019-05-25T11:08:48.404Z,16.95
2019-05-25T11:09:54.400Z,14.80
2019-05-25T11:11:00.731Z,14.18
2019-05-25T11:12:11.815Z,14.40
2019-05-25T11:13:18.312Z,13.60
2019-05-25T11:14:24.983Z,12.07
2019-05-25T11:15:31.183Z,12.93
2019-05-25T11:16:36.073Z,13.72
2019-05-25T11:17:41.814Z,11.93
2019-05-25T11:18:49.795Z,11.30
2019-05-25T11:20:02.279Z,12.07
2019-05-25T11:21:07.092Z,12.45
2019-05-25T11:22:16.846Z,11.75
2019-05-25T11:23:22.997Z,11.35
2019-05-25T11:24:30.376Z,12.93
2019-05-25T11:25:34.686Z,13.43
2019-05-25T11:26:40.090Z,12.03
2019-05-25T11:27:49.037Z,12.13
2019-05-25T11:28:56.409Z,11.40
2019-05-25T11:30:08.882Z,10.93
2019-05-25T11:31:08.787Z,10.80
2019-05-25T11:32:16.493Z,10.90
2019-05-25T11:33:28.177Z,11.85
2019-05-25T11:34:38.237Z,11.28
2019-05-25T11:35:58.470Z,10.53
2019-05-25T11:37:15.508Z,10.20
2019-05-25T11:38:41.483Z,10.40
2019-05-25T11:40:02.689Z,10.55
2019-05-25T11:41:20.088Z,11.33
2019-05-25T11:42:31.113Z,10.88
2019-05-25T11:43:43.541Z,10.32
2019-05-25T11:44:58.748Z,10.05
2019-05-25T11:46:04.687Z,10.72
2019-05-25T11:47:15.606Z,9.65
2019-05-25T11:48:27.812Z,10.68
2019-05-25T11:49:38.335Z,9.15
2019-05-25T11:50:42.939Z,8.80
2019-05-25T11:51:55.598Z,9.50
2019-05-25T11:53:05.530Z,9.68
2019-05-25T11:54:08.360Z,10.38
2019-05-25T11:55:25.793Z,10.60
2019-05-25T11:56:31.025Z,9.65
2019-05-25T11:57:50.688Z,9.20
2019-05-25T11:58:59.557Z,9.63
2019-05-25T12:00:05.659Z,8.15
2019-05-25T12:01:10.820Z,9.08
2019-05-25T12:02:16.362Z,9.43
2019-05-25T12:03:25.816Z,8.10
2019-05-25T12:04:31.849Z,7.55
2019-05-25T12:05:36.521Z,7.80
2019-05-25T12:06:43.701Z,8.43
2019-05-25T12:07:48.648Z,10.00
2019-05-25T12:08:55.917Z,10.30
2019-05-25T12:10:05.415Z,9.63
2019-05-25T12:11:10.845Z,8.75
2019-05-25T12:12:17.775Z,8.50
2019-05-25T12:13:23.051Z,8.98
2019-05-25T12:14:30.484Z,8.93
2019-05-25T12:15:37.087Z,9.00
2019-05-25T12:16:42.293Z,8.58
2019-05-25T12:17:52.598Z,8.43
2019-05-25T12:18:57.338Z,8.90
2019-05-25T12:20:02.619Z,8.78
2019-05-25T12:21:07.836Z,9.08
2019-05-25T12:22:19.189Z,9.00
2019-05-25T12:23:26.838Z,9.15
2019-05-25T12:24:32.237Z,10.08
2019-05-25T12:25:39.776Z,8.98
2019-05-25T12:26:46.639Z,9.60
2019-05-25T12:27:51.785Z,11.15
2019-05-25T12:28:57.474Z,8.95
2019-05-25T12:30:02.123Z,9.45
2019-05-25T12:31:10.606Z,10.00
2019-05-25T12:32:15.219Z,9.43
2019-05-25T12:33:21.108Z,9.80
2019-05-25T12:34:25.779Z,9.53
2019-05-25T12:35:33.128Z,9.38
2019-05-25T12:36:37.996Z,11.43
2019-05-25T12:37:43.659Z,10.48
2019-05-25T12:38:48.465Z,11.18
2019-05-25T12:39:54.636Z,9.10
2019-05-25T12:41:00.227Z,9.50
2019-05-25T12:42:05.534Z,8.65
2019-05-25T12:43:11.925Z,8.10
2019-05-25T12:44:18.165Z,9.38
2019-05-25T12:45:42.479Z,9.30
2019-05-25T12:46:47.921Z,10.78
2019-05-25T12:47:54.031Z,10.45
2019-05-25T12:49:04.742Z,11.10
2019-05-25T12:50:20.754Z,10.55
2019-05-25T12:51:48.635Z,9.38
2019-05-25T12:52:53.344Z,8.50
2019-05-25T12:54:08.543Z,8.93
2019-05-25T12:55:17.628Z,10.90
2019-05-25T12:56:23.952Z,8.63
2019-05-25T12:57:31.642Z,8.88
2019-05-25T12:58:42.751Z,9.93
2019-05-25T12:59:47.403Z,8.93
2019-05-25T13:00:56.009Z,10.18
2019-05-25T13:02:02.635Z,10.98
2019-05-25T13:03:10.929Z,7.83
2019-05-25T13:04:14.454Z,10.00
2019-05-25T13:05:32.964Z,9.60
2019-05-25T13:06:27.459Z,8.05
2019-05-25T13:07:33.214Z,8.50
2019-05-25T13:08:43.747Z,10.05
2019-05-25T13:09:47.622Z,8.00
2019-05-25T13:11:28.087Z,8.23
2019-05-25T13:12:42.200Z,11.80
2019-05-25T13:13:47.499Z,9.28
2019-05-25T13:14:52.235Z,11.60
2019-05-25T13:15:57.857Z,11.38
2019-05-25T13:17:03.003Z,11.53
2019-05-25T13:18:08.353Z,10.68
2019-05-25T13:19:15.323Z,11.75
2019-05-25T13:20:23.813Z,10.75
2019-05-25T13:21:29.027Z,13.32
2019-05-25T13:22:34.609Z,11.90
2019-05-25T13:23:42.356Z,12.88
2019-05-25T13:24:49.010Z,12.63
2019-05-25T13:25:53.735Z,11.30
2019-05-25T13:26:59.617Z,12.63
2019-05-25T13:28:05.311Z,13.53
2019-05-25T13:29:10.747Z,13.43
2019-05-25T13:30:16.849Z,13.05
2019-05-25T13:31:28.635Z,10.72
2019-05-25T13:32:33.359Z,10.40
2019-05-25T13:33:44.619Z,13.75
2019-05-25T13:34:49.626Z,13.30
2019-05-25T13:35:55.047Z,10.48
2019-05-25T13:37:01.847Z,8.50
2019-05-25T13:38:07.183Z,12.50
2019-05-25T13:39:12.216Z,12.13
2019-05-25T13:40:17.828Z,12.47
2019-05-25T13:41:22.671Z,12.75
2019-05-25T13:42:29.026Z,9.35
2019-05-25T13:43:34.198Z,12.13
2019-05-25T13:44:43.321Z,10.18
2019-05-25T13:45:49.113Z,9.80
2019-05-25T13:46:56.766Z,8.58
2019-05-25T13:48:03.582Z,9.38
2019-05-25T13:49:09.359Z,7.42
2019-05-25T13:50:15.125Z,9.55
2019-05-25T13:51:25.727Z,11.60
2019-05-25T13:52:31.184Z,11.65
2019-05-25T13:53:36.455Z,11.83
2019-05-25T13:54:42.959Z,13.08
2019-05-25T13:55:48.238Z,9.48
2019-05-25T13:56:53.672Z,7.05
2019-05-25T13:58:00.310Z,7.60
2019-05-25T13:59:05.118Z,8.15
2019-05-25T14:00:10.947Z,8.88
2019-05-25T14:01:27.969Z,8.55
2019-05-25T14:02:23.215Z,7.95
2019-05-25T14:03:28.026Z,7.40
2019-05-25T14:04:33.277Z,7.85
2019-05-25T14:05:39.506Z,7.22
2019-05-25T14:06:48.947Z,5.03
2019-05-25T14:07:57.042Z,7.17
2019-05-25T14:09:02.657Z,6.58
2019-05-25T14:10:08.820Z,7.00
2019-05-25T14:11:17.408Z,6.65
2019-05-25T14:12:23.126Z,6.87
2019-05-25T14:13:28.519Z,7.08
2019-05-25T14:14:33.587Z,8.00
2019-05-25T14:15:38.939Z,8.43
2019-05-25T14:16:43.942Z,6.72
2019-05-25T14:17:49.177Z,8.48
2019-05-25T14:18:54.019Z,11.43
2019-05-25T14:19:59.888Z,10.63
2019-05-25T14:21:05.301Z,12.18
2019-05-25T14:22:11.030Z,9.23
2019-05-25T14:23:16.083Z,7.62
2019-05-25T14:24:21.686Z,9.20
2019-05-25T14:25:26.509Z,11.80
2019-05-25T14:26:34.938Z,7.33
2019-05-25T14:27:40.662Z,8.28
2019-05-25T14:28:48.943Z,9.30
2019-05-25T14:29:53.616Z,10.82
2019-05-25T14:30:58.945Z,5.78
2019-05-25T14:32:07.067Z,5.15
2019-05-25T14:33:14.671Z,6.60
2019-05-25T14:34:19.681Z,5.47
2019-05-25T14:35:24.950Z,5.10
2019-05-25T14:36:29.686Z,5.60
2019-05-25T14:37:35.049Z,6.53
2019-05-25T14:38:45.249Z,5.03
2019-05-25T14:39:53.576Z,5.22
2019-05-25T14:40:58.345Z,5.72
2019-05-25T14:42:04.040Z,7.25